Check out our new PWSWeather beta!
PWSweather.com
Personal Weather Stations
Station Observations
SHAHALMS1
Eftra, Falkenberg, HA

EftraFalkenberg, HA

Lat: 56.85, Lon: 12.65

Elevation: 140

Station Type:

http://hem.passagen.se/risarp101

High Low Average
Temperature 81.0°F27.2°C 57.0°F13.9°C 68.6°F20.3°C
Dew Point 63.1°F17.3°C 52.6°F11.4°C 56.7°F13.7°C
Winds 7.6 mph 12.2 kmh Calm Calm 3.0 mph SE4.8 kmh SE
Wind Gusts 12.5 mph20.1 kmh -- 5.0 mph8.0 kmh
Humidity 91% 41% 69%
Pressure 30.30 in1026.1 mb 30.21 in1023.0 mb -
Precipitation 0.00 in0.0 mm - -
Hour Temp Dew Point Humidity Winds Wind Gusts Pressure Precip Precip Rate Daily Precip Total
12:00 AM 58.8°F14.9°C 55.0°F12.8°C 87% Calm Calm -- 30.27 in1025.1 mb 0.00 in0.0 mm 0.00 in0.0 mm 0.00 in0.0 mm
12:10 AM 58.8°F14.9°C 55.0°F12.8°C 87% Calm Calm -- 30.27 in1025.1 mb 0.00 in0.0 mm 0.00 in0.0 mm 0.00 in0.0 mm
12:20 AM 58.6°F14.8°C 55.1°F12.8°C 88% Calm Calm -- 30.27 in1025.1 mb 0.00 in0.0 mm 0.00 in0.0 mm 0.00 in0.0 mm
12:30 AM 58.5°F14.7°C 54.9°F12.7°C 88% Calm Calm -- 30.30 in1026.1 mb 0.00 in0.0 mm 0.00 in0.0 mm 0.00 in0.0 mm
12:40 AM 58.3°F14.6°C 55.1°F12.8°C 89% Calm Calm -- 30.30 in1026.1 mb 0.00 in0.0 mm 0.00 in0.0 mm 0.00 in0.0 mm
12:50 AM 58.3°F14.6°C 55.1°F12.8°C 89% Calm Calm -- 30.30 in1026.1 mb 0.00 in0.0 mm 0.00 in0.0 mm 0.00 in0.0 mm
01:00 AM 58.3°F14.6°C 55.1°F12.8°C 89% Calm Calm -- 30.30 in1026.1 mb 0.00 in0.0 mm 0.00 in0.0 mm 0.00 in0.0 mm
01:10 AM 58.3°F14.6°C 55.4°F13.0°C 90% Calm Calm -- 30.30 in1026.1 mb 0.00 in0.0 mm 0.00 in0.0 mm 0.00 in0.0 mm
01:20 AM 58.3°F14.6°C 55.4°F13.0°C 90% Calm Calm -- 30.30 in1026.1 mb 0.00 in0.0 mm 0.00 in0.0 mm 0.00 in0.0 mm
01:30 AM 58.1°F14.5°C 55.2°F12.9°C 90% Calm Calm -- 30.30 in1026.1 mb 0.00 in0.0 mm 0.00 in0.0 mm 0.00 in0.0 mm
01:40 AM 58.6°F14.8°C 56.0°F13.3°C 91% Calm Calm -- 30.30 in1026.1 mb 0.00 in0.0 mm 0.00 in0.0 mm 0.00 in0.0 mm
01:50 AM 58.8°F14.9°C 56.2°F13.4°C 91% Calm Calm -- 30.30 in1026.1 mb 0.00 in0.0 mm 0.00 in0.0 mm 0.00 in0.0 mm
02:00 AM 58.8°F14.9°C 56.2°F13.4°C 91% Calm Calm -- 30.30 in1026.1 mb 0.00 in0.0 mm 0.00 in0.0 mm 0.00 in0.0 mm
02:10 AM 58.6°F14.8°C 55.7°F13.2°C 90% Calm Calm -- 30.27 in1025.1 mb 0.00 in0.0 mm 0.00 in0.0 mm 0.00 in0.0 mm
02:20 AM 58.5°F14.7°C 55.5°F13.1°C 90% Calm Calm -- 30.27 in1025.1 mb 0.00 in0.0 mm 0.00 in0.0 mm 0.00 in0.0 mm
02:30 AM 58.1°F14.5°C 54.9°F12.7°C 89% Calm Calm -- 30.30 in1026.1 mb 0.00 in0.0 mm 0.00 in0.0 mm 0.00 in0.0 mm
02:40 AM 57.7°F14.3°C 54.5°F12.5°C 89% Calm Calm -- 30.30 in1026.1 mb 0.00 in0.0 mm 0.00 in0.0 mm 0.00 in0.0 mm
02:50 AM 57.4°F14.1°C 54.2°F12.3°C 89% Calm Calm -- 30.30 in1026.1 mb 0.00 in0.0 mm 0.00 in0.0 mm 0.00 in0.0 mm
03:00 AM 57.6°F14.2°C 54.3°F12.4°C 89% Calm Calm -- 30.30 in1026.1 mb 0.00 in0.0 mm 0.00 in0.0 mm 0.00 in0.0 mm
03:10 AM 57.7°F14.3°C 54.8°F12.7°C 90% Calm Calm -- 30.27 in1025.1 mb 0.00 in0.0 mm 0.00 in0.0 mm 0.00 in0.0 mm
03:20 AM 57.9°F14.4°C 55.0°F12.8°C 90% Calm Calm -- 30.27 in1025.1 mb 0.00 in0.0 mm 0.00 in0.0 mm 0.00 in0.0 mm
03:30 AM 57.9°F14.4°C 54.7°F12.6°C 89% Calm Calm -- 30.30 in1026.1 mb 0.00 in0.0 mm 0.00 in0.0 mm 0.00 in0.0 mm
03:40 AM 57.9°F14.4°C 54.4°F12.4°C 88% Calm Calm -- 30.27 in1025.1 mb 0.00 in0.0 mm 0.00 in0.0 mm 0.00 in0.0 mm
03:50 AM 57.7°F14.3°C 53.9°F12.2°C 87% Calm Calm -- 30.27 in1025.1 mb 0.00 in0.0 mm 0.00 in0.0 mm 0.00 in0.0 mm
04:00 AM 57.9°F14.4°C 54.1°F12.3°C 87% Calm Calm -- 30.27 in1025.1 mb 0.00 in0.0 mm 0.00 in0.0 mm 0.00 in0.0 mm
04:10 AM 57.7°F14.3°C 53.6°F12.0°C 86% Calm Calm -- 30.27 in1025.1 mb 0.00 in0.0 mm 0.00 in0.0 mm 0.00 in0.0 mm
04:20 AM 57.7°F14.3°C 53.3°F11.8°C 85% Calm Calm -- 30.27 in1025.1 mb 0.00 in0.0 mm 0.00 in0.0 mm 0.00 in0.0 mm
04:30 AM 57.6°F14.2°C 53.1°F11.7°C 85% Calm Calm -- 30.27 in1025.1 mb 0.00 in0.0 mm 0.00 in0.0 mm 0.00 in0.0 mm
04:40 AM 57.6°F14.2°C 53.1°F11.7°C 85% Calm Calm -- 30.27 in1025.1 mb 0.00 in0.0 mm 0.00 in0.0 mm 0.00 in0.0 mm
04:50 AM 57.6°F14.2°C 53.1°F11.7°C 85% Calm Calm -- 30.27 in1025.1 mb 0.00 in0.0 mm 0.00 in0.0 mm 0.00 in0.0 mm
05:00 AM 57.4°F14.1°C 52.9°F11.6°C 85% Calm Calm -- 30.27 in1025.1 mb 0.00 in0.0 mm 0.00 in0.0 mm 0.00 in0.0 mm
05:10 AM 57.0°F13.9°C 52.6°F11.4°C 85% Calm Calm -- 30.27 in1025.1 mb 0.00 in0.0 mm 0.00 in0.0 mm 0.00 in0.0 mm
05:20 AM 57.0°F13.9°C 52.9°F11.6°C 86% Calm Calm -- 30.27 in1025.1 mb 0.00 in0.0 mm 0.00 in0.0 mm 0.00 in0.0 mm
05:30 AM 57.2°F14.0°C 53.4°F11.9°C 87% Calm Calm -- 30.27 in1025.1 mb 0.00 in0.0 mm 0.00 in0.0 mm 0.00 in0.0 mm
05:40 AM 57.6°F14.2°C 54.0°F12.2°C 88% Calm Calm -- 30.27 in1025.1 mb 0.00 in0.0 mm 0.00 in0.0 mm 0.00 in0.0 mm
05:50 AM 58.1°F14.5°C 54.6°F12.6°C 88% Calm Calm -- 30.27 in1025.1 mb 0.00 in0.0 mm 0.00 in0.0 mm 0.00 in0.0 mm
06:00 AM 58.5°F14.7°C 54.9°F12.7°C 88% Calm Calm -- 30.27 in1025.1 mb 0.00 in0.0 mm 0.00 in0.0 mm 0.00 in0.0 mm
06:10 AM 58.8°F14.9°C 55.3°F12.9°C 88% Calm Calm -- 30.27 in1025.1 mb 0.00 in0.0 mm 0.00 in0.0 mm 0.00 in0.0 mm
06:20 AM 59.4°F15.2°C 55.8°F13.2°C 88% Calm Calm -- 30.27 in1025.1 mb 0.00 in0.0 mm 0.00 in0.0 mm 0.00 in0.0 mm
06:30 AM 59.9°F15.5°C 56.3°F13.5°C 88% Calm Calm -- 30.27 in1025.1 mb 0.00 in0.0 mm 0.00 in0.0 mm 0.00 in0.0 mm
06:40 AM 61.2°F16.2°C 57.9°F14.4°C 89% Calm Calm -- 30.27 in1025.1 mb 0.00 in0.0 mm 0.00 in0.0 mm 0.00 in0.0 mm
06:50 AM 62.4°F16.9°C 58.8°F14.9°C 88% Calm Calm -- 30.27 in1025.1 mb 0.00 in0.0 mm 0.00 in0.0 mm 0.00 in0.0 mm
07:00 AM 63.1°F17.3°C 59.2°F15.1°C 87% Calm Calm -- 30.27 in1025.1 mb 0.00 in0.0 mm 0.00 in0.0 mm 0.00 in0.0 mm
07:10 AM 64.2°F17.9°C 59.9°F15.5°C 86% Calm Calm -- 30.27 in1025.1 mb 0.00 in0.0 mm 0.00 in0.0 mm 0.00 in0.0 mm
07:20 AM 65.1°F18.4°C 59.8°F15.4°C 83% 7.4 mph NE11.9 kmh NE 9.7 mph15.6 kmh 30.27 in1025.1 mb 0.00 in0.0 mm 0.00 in0.0 mm 0.00 in0.0 mm
07:30 AM 66.0°F18.9°C 60.4°F15.8°C 82% 7.3 mph NE11.7 kmh NE 8.9 mph14.3 kmh 30.27 in1025.1 mb 0.00 in0.0 mm 0.00 in0.0 mm 0.00 in0.0 mm
07:40 AM 66.7°F19.3°C 60.4°F15.8°C 80% 6.0 mph E9.7 kmh E 9.3 mph15.0 kmh 30.27 in1025.1 mb 0.00 in0.0 mm 0.00 in0.0 mm 0.00 in0.0 mm
07:50 AM 67.6°F19.8°C 60.9°F16.1°C 79% 7.6 mph E12.2 kmh E 9.3 mph15.0 kmh 30.27 in1025.1 mb 0.00 in0.0 mm 0.00 in0.0 mm 0.00 in0.0 mm
08:00 AM 68.4°F20.2°C 61.2°F16.2°C 78% 7.6 mph E12.2 kmh E 9.3 mph15.0 kmh 30.27 in1025.1 mb 0.00 in0.0 mm 0.00 in0.0 mm 0.00 in0.0 mm
08:10 AM 68.7°F20.4°C 61.2°F16.2°C 77% 4.4 mph E7.1 kmh E 5.4 mph8.7 kmh 30.27 in1025.1 mb 0.00 in0.0 mm 0.00 in0.0 mm 0.00 in0.0 mm
08:20 AM 69.4°F20.8°C 61.9°F16.6°C 77% 4.4 mph E7.1 kmh E 5.4 mph8.7 kmh 30.27 in1025.1 mb 0.00 in0.0 mm 0.00 in0.0 mm 0.00 in0.0 mm
08:30 AM 70.0°F21.1°C 61.7°F16.5°C 75% 5.5 mph E8.9 kmh E 7.5 mph12.1 kmh 30.27 in1025.1 mb 0.00 in0.0 mm 0.00 in0.0 mm 0.00 in0.0 mm
08:40 AM 70.7°F21.5°C 62.4°F16.9°C 75% 6.0 mph E9.7 kmh E 9.7 mph15.6 kmh 30.27 in1025.1 mb 0.00 in0.0 mm 0.00 in0.0 mm 0.00 in0.0 mm
08:50 AM 71.1°F21.7°C 62.0°F16.7°C 73% 3.7 mph E6.0 kmh E 8.9 mph14.3 kmh 30.27 in1025.1 mb 0.00 in0.0 mm 0.00 in0.0 mm 0.00 in0.0 mm
09:00 AM 71.8°F22.1°C 62.7°F17.1°C 73% 4.6 mph E7.4 kmh E 8.9 mph14.3 kmh 30.27 in1025.1 mb 0.00 in0.0 mm 0.00 in0.0 mm 0.00 in0.0 mm
09:10 AM 72.3°F22.4°C 62.4°F16.9°C 71% 4.4 mph E7.1 kmh E 8.9 mph14.3 kmh 30.27 in1025.1 mb 0.00 in0.0 mm 0.00 in0.0 mm 0.00 in0.0 mm
09:20 AM 73.0°F22.8°C 63.1°F17.3°C 71% 0.3 mph E0.5 kmh E 4.3 mph6.9 kmh 30.27 in1025.1 mb 0.00 in0.0 mm 0.00 in0.0 mm 0.00 in0.0 mm
09:30 AM 73.6°F23.1°C 62.8°F17.1°C 69% 3.0 mph E4.8 kmh E 7.9 mph12.7 kmh 30.27 in1025.1 mb 0.00 in0.0 mm 0.00 in0.0 mm 0.00 in0.0 mm
09:40 AM 74.1°F23.4°C 62.9°F17.2°C 68% 3.3 mph E5.3 kmh E 10.4 mph16.7 kmh 30.27 in1025.1 mb 0.00 in0.0 mm 0.00 in0.0 mm 0.00 in0.0 mm
09:50 AM 74.5°F23.6°C 62.4°F16.9°C 66% 5.0 mph E8.0 kmh E 9.7 mph15.6 kmh 30.27 in1025.1 mb 0.00 in0.0 mm 0.00 in0.0 mm 0.00 in0.0 mm
10:00 AM 75.2°F24.0°C 62.2°F16.8°C 64% 5.6 mph E9.0 kmh E 9.7 mph15.6 kmh 30.27 in1025.1 mb 0.00 in0.0 mm 0.00 in0.0 mm 0.00 in0.0 mm
10:10 AM 75.6°F24.2°C 62.1°F16.7°C 63% 3.7 mph E6.0 kmh E 8.6 mph13.8 kmh 30.27 in1025.1 mb 0.00 in0.0 mm 0.00 in0.0 mm 0.00 in0.0 mm
10:20 AM 75.7°F24.3°C 62.2°F16.8°C 63% 4.2 mph SE6.8 kmh SE 5.4 mph8.7 kmh 30.27 in1025.1 mb 0.00 in0.0 mm 0.00 in0.0 mm 0.00 in0.0 mm
10:30 AM 75.9°F24.4°C 61.0°F16.1°C 60% 4.1 mph S6.6 kmh S 5.0 mph8.0 kmh 30.27 in1025.1 mb 0.00 in0.0 mm 0.00 in0.0 mm 0.00 in0.0 mm
10:40 AM 76.1°F24.5°C 61.2°F16.2°C 60% 3.9 mph ESE6.3 kmh ESE 6.8 mph10.9 kmh 30.27 in1025.1 mb 0.00 in0.0 mm 0.00 in0.0 mm 0.00 in0.0 mm
10:50 AM 76.3°F24.6°C 60.9°F16.1°C 59% 2.9 mph E4.7 kmh E 7.2 mph11.6 kmh 30.27 in1025.1 mb 0.00 in0.0 mm 0.00 in0.0 mm 0.00 in0.0 mm
11:00 AM 76.8°F24.9°C 62.3°F16.8°C 61% 1.3 mph E2.1 kmh E 6.8 mph10.9 kmh 30.27 in1025.1 mb 0.00 in0.0 mm 0.00 in0.0 mm 0.00 in0.0 mm
11:10 AM 77.4°F25.2°C 60.4°F15.8°C 56% 5.4 mph E8.7 kmh E 11.8 mph19.0 kmh 30.27 in1025.1 mb 0.00 in0.0 mm 0.00 in0.0 mm 0.00 in0.0 mm
11:20 AM 77.7°F25.4°C 59.7°F15.4°C 54% 5.9 mph ESE9.5 kmh ESE 11.8 mph19.0 kmh 30.27 in1025.1 mb 0.00 in0.0 mm 0.00 in0.0 mm 0.00 in0.0 mm
11:30 AM 78.1°F25.6°C 60.1°F15.6°C 54% 3.5 mph E5.6 kmh E 9.3 mph15.0 kmh 30.27 in1025.1 mb 0.00 in0.0 mm 0.00 in0.0 mm 0.00 in0.0 mm
11:40 AM 78.4°F25.8°C 60.4°F15.8°C 54% 4.9 mph E7.9 kmh E 9.3 mph15.0 kmh 30.27 in1025.1 mb 0.00 in0.0 mm 0.00 in0.0 mm 0.00 in0.0 mm
11:50 AM 78.8°F26.0°C 59.7°F15.4°C 52% 5.1 mph ESE8.2 kmh ESE 9.7 mph15.6 kmh 30.27 in1025.1 mb 0.00 in0.0 mm 0.00 in0.0 mm 0.00 in0.0 mm
12:00 PM 79.2°F26.2°C 59.5°F15.3°C 51% 4.2 mph SE6.8 kmh SE 9.7 mph15.6 kmh 30.27 in1025.1 mb 0.00 in0.0 mm 0.00 in0.0 mm 0.00 in0.0 mm
12:10 PM 79.5°F26.4°C 59.2°F15.1°C 50% 5.2 mph SSE8.4 kmh SSE 12.5 mph20.1 kmh 30.27 in1025.1 mb 0.00 in0.0 mm 0.00 in0.0 mm 0.00 in0.0 mm
12:20 PM 79.9°F26.6°C 58.4°F14.7°C 48% 5.2 mph SE8.4 kmh SE 12.2 mph19.6 kmh 30.27 in1025.1 mb 0.00 in0.0 mm 0.00 in0.0 mm 0.00 in0.0 mm
12:30 PM 80.1°F26.7°C 58.0°F14.4°C 47% 5.5 mph S8.9 kmh S 6.8 mph10.9 kmh 30.27 in1025.1 mb 0.00 in0.0 mm 0.00 in0.0 mm 0.00 in0.0 mm
12:40 PM 79.9°F26.6°C 57.8°F14.3°C 47% 5.5 mph S8.9 kmh S 6.8 mph10.9 kmh 30.27 in1025.1 mb 0.00 in0.0 mm 0.00 in0.0 mm 0.00 in0.0 mm
12:50 PM 79.7°F26.5°C 58.3°F14.6°C 48% 5.5 mph S8.9 kmh S 6.8 mph10.9 kmh 30.27 in1025.1 mb 0.00 in0.0 mm 0.00 in0.0 mm 0.00 in0.0 mm
01:00 PM 79.7°F26.5°C 58.8°F14.9°C 49% 5.5 mph S8.9 kmh S 6.8 mph10.9 kmh 30.27 in1025.1 mb 0.00 in0.0 mm 0.00 in0.0 mm 0.00 in0.0 mm
01:10 PM 79.5°F26.4°C 58.7°F14.8°C 49% 5.5 mph S8.9 kmh S 6.8 mph10.9 kmh 30.27 in1025.1 mb 0.00 in0.0 mm 0.00 in0.0 mm 0.00 in0.0 mm
01:20 PM 79.5°F26.4°C 58.7°F14.8°C 49% 5.5 mph S8.9 kmh S 6.8 mph10.9 kmh 30.27 in1025.1 mb 0.00 in0.0 mm 0.00 in0.0 mm 0.00 in0.0 mm
01:30 PM 79.7°F26.5°C 58.8°F14.9°C 49% 5.5 mph S8.9 kmh S 6.8 mph10.9 kmh 30.27 in1025.1 mb 0.00 in0.0 mm 0.00 in0.0 mm 0.00 in0.0 mm
01:40 PM 79.9°F26.6°C 58.4°F14.7°C 48% 5.5 mph S8.9 kmh S 6.8 mph10.9 kmh 30.27 in1025.1 mb 0.00 in0.0 mm 0.00 in0.0 mm 0.00 in0.0 mm
01:50 PM 79.9°F26.6°C 57.8°F14.3°C 47% 5.5 mph S8.9 kmh S 6.8 mph10.9 kmh 30.27 in1025.1 mb 0.00 in0.0 mm 0.00 in0.0 mm 0.00 in0.0 mm
02:00 PM 80.1°F26.7°C 58.0°F14.4°C 47% 4.4 mph S7.1 kmh S 8.6 mph13.8 kmh 30.27 in1025.1 mb 0.00 in0.0 mm 0.00 in0.0 mm 0.00 in0.0 mm
02:10 PM 80.4°F26.9°C 57.7°F14.3°C 46% 3.2 mph S5.1 kmh S 6.4 mph10.3 kmh 30.27 in1025.1 mb 0.00 in0.0 mm 0.00 in0.0 mm 0.00 in0.0 mm
02:20 PM 80.6°F27.0°C 56.7°F13.7°C 44% 3.6 mph SSE5.8 kmh SSE 5.4 mph8.7 kmh 30.27 in1025.1 mb 0.00 in0.0 mm 0.00 in0.0 mm 0.00 in0.0 mm
02:30 PM 80.6°F27.0°C 56.0°F13.3°C 43% 4.3 mph S6.9 kmh S 10.0 mph16.1 kmh 30.27 in1025.1 mb 0.00 in0.0 mm 0.00 in0.0 mm 0.00 in0.0 mm
02:40 PM 80.8°F27.1°C 56.2°F13.4°C 43% 4.1 mph S6.6 kmh S 8.9 mph14.3 kmh 30.24 in1024.0 mb 0.00 in0.0 mm 0.00 in0.0 mm 0.00 in0.0 mm
02:50 PM 81.0°F27.2°C 56.4°F13.6°C 43% 3.9 mph SSE6.3 kmh SSE 9.7 mph15.6 kmh 30.24 in1024.0 mb 0.00 in0.0 mm 0.00 in0.0 mm 0.00 in0.0 mm
03:00 PM 81.0°F27.2°C 55.0°F12.8°C 41% 5.1 mph SE8.2 kmh SE 10.4 mph16.7 kmh 30.24 in1024.0 mb 0.00 in0.0 mm 0.00 in0.0 mm 0.00 in0.0 mm
03:10 PM 81.0°F27.2°C 55.0°F12.8°C 41% 3.2 mph SE5.1 kmh SE 10.0 mph16.1 kmh 30.24 in1024.0 mb 0.00 in0.0 mm 0.00 in0.0 mm 0.00 in0.0 mm
03:20 PM 81.0°F27.2°C 55.0°F12.8°C 41% 2.1 mph SE3.4 kmh SE 6.8 mph10.9 kmh 30.24 in1024.0 mb 0.00 in0.0 mm 0.00 in0.0 mm 0.00 in0.0 mm
03:30 PM 81.0°F27.2°C 55.0°F12.8°C 41% 3.7 mph SE6.0 kmh SE 6.8 mph10.9 kmh 30.24 in1024.0 mb 0.00 in0.0 mm 0.00 in0.0 mm 0.00 in0.0 mm
03:40 PM 81.0°F27.2°C 55.0°F12.8°C 41% 3.5 mph S5.6 kmh S 4.3 mph6.9 kmh 30.24 in1024.0 mb 0.00 in0.0 mm 0.00 in0.0 mm 0.00 in0.0 mm
03:50 PM 80.8°F27.1°C 54.9°F12.7°C 41% 4.0 mph S6.4 kmh S 5.0 mph8.0 kmh 30.24 in1024.0 mb 0.00 in0.0 mm 0.00 in0.0 mm 0.00 in0.0 mm
04:00 PM 80.8°F27.1°C 54.9°F12.7°C 41% 4.1 mph S6.6 kmh S 5.0 mph8.0 kmh 30.24 in1024.0 mb 0.00 in0.0 mm 0.00 in0.0 mm 0.00 in0.0 mm
04:10 PM 80.8°F27.1°C 54.9°F12.7°C 41% 4.1 mph S6.6 kmh S 5.0 mph8.0 kmh 30.24 in1024.0 mb 0.00 in0.0 mm 0.00 in0.0 mm 0.00 in0.0 mm
04:20 PM 80.8°F27.1°C 55.5°F13.1°C 42% 3.5 mph S5.6 kmh S 4.7 mph7.6 kmh 30.24 in1024.0 mb 0.00 in0.0 mm 0.00 in0.0 mm 0.00 in0.0 mm
04:30 PM 80.6°F27.0°C 54.7°F12.6°C 41% 3.8 mph S6.1 kmh S 5.0 mph8.0 kmh 30.24 in1024.0 mb 0.00 in0.0 mm 0.00 in0.0 mm 0.00 in0.0 mm
04:40 PM 80.6°F27.0°C 56.0°F13.3°C 43% 3.8 mph S6.1 kmh S 5.0 mph8.0 kmh 30.24 in1024.0 mb 0.00 in0.0 mm 0.00 in0.0 mm 0.00 in0.0 mm
04:50 PM 80.4°F26.9°C 57.1°F13.9°C 45% 2.8 mph S4.5 kmh S 5.0 mph8.0 kmh 30.24 in1024.0 mb 0.00 in0.0 mm 0.00 in0.0 mm 0.00 in0.0 mm
05:00 PM 80.1°F26.7°C 57.4°F14.1°C 46% 4.1 mph S6.6 kmh S 5.0 mph8.0 kmh 30.24 in1024.0 mb 0.00 in0.0 mm 0.00 in0.0 mm 0.00 in0.0 mm
05:10 PM 79.7°F26.5°C 57.1°F13.9°C 46% 3.8 mph S6.1 kmh S 5.0 mph8.0 kmh 30.21 in1023.0 mb 0.00 in0.0 mm 0.00 in0.0 mm 0.00 in0.0 mm
05:20 PM 79.2°F26.2°C 56.6°F13.7°C 46% 3.6 mph WSW5.8 kmh WSW 5.7 mph9.2 kmh 30.21 in1023.0 mb 0.00 in0.0 mm 0.00 in0.0 mm 0.00 in0.0 mm
05:30 PM 78.8°F26.0°C 56.9°F13.8°C 47% 4.7 mph W7.6 kmh W 5.7 mph9.2 kmh 30.24 in1024.0 mb 0.00 in0.0 mm 0.00 in0.0 mm 0.00 in0.0 mm
05:40 PM 78.3°F25.7°C 56.4°F13.6°C 47% 4.7 mph W7.6 kmh W 5.7 mph9.2 kmh 30.24 in1024.0 mb 0.00 in0.0 mm 0.00 in0.0 mm 0.00 in0.0 mm
05:50 PM 77.5°F25.3°C 55.7°F13.2°C 47% 4.7 mph W7.6 kmh W 5.7 mph9.2 kmh 30.24 in1024.0 mb 0.00 in0.0 mm 0.00 in0.0 mm 0.00 in0.0 mm
06:00 PM 77.0°F25.0°C 55.2°F12.9°C 47% 4.7 mph W7.6 kmh W 5.7 mph9.2 kmh 30.24 in1024.0 mb 0.00 in0.0 mm 0.00 in0.0 mm 0.00 in0.0 mm
06:10 PM 76.3°F24.6°C 55.7°F13.2°C 49% 4.7 mph W7.6 kmh W 5.7 mph9.2 kmh 30.24 in1024.0 mb 0.00 in0.0 mm 0.00 in0.0 mm 0.00 in0.0 mm
06:20 PM 75.4°F24.1°C 54.9°F12.7°C 49% 4.7 mph W7.6 kmh W 5.7 mph9.2 kmh 30.24 in1024.0 mb 0.00 in0.0 mm 0.00 in0.0 mm 0.00 in0.0 mm
06:30 PM 74.3°F23.5°C 55.0°F12.8°C 51% 4.7 mph W7.6 kmh W 5.7 mph9.2 kmh 30.24 in1024.0 mb 0.00 in0.0 mm 0.00 in0.0 mm 0.00 in0.0 mm
06:40 PM 73.2°F22.9°C 55.6°F13.1°C 54% 4.7 mph W7.6 kmh W 5.7 mph9.2 kmh 30.24 in1024.0 mb 0.00 in0.0 mm 0.00 in0.0 mm 0.00 in0.0 mm
06:50 PM 72.1°F22.3°C 55.1°F12.8°C 55% 4.7 mph W7.6 kmh W 5.7 mph9.2 kmh 30.24 in1024.0 mb 0.00 in0.0 mm 0.00 in0.0 mm 0.00 in0.0 mm
07:00 PM 71.2°F21.8°C 55.2°F12.9°C 57% 4.7 mph W7.6 kmh W 5.7 mph9.2 kmh 30.24 in1024.0 mb 0.00 in0.0 mm 0.00 in0.0 mm 0.00 in0.0 mm
07:10 PM 70.2°F21.2°C 54.7°F12.6°C 58% 4.7 mph W7.6 kmh W 5.7 mph9.2 kmh 30.21 in1023.0 mb 0.00 in0.0 mm 0.00 in0.0 mm 0.00 in0.0 mm
07:20 PM 69.3°F20.7°C 54.3°F12.4°C 59% 4.7 mph W7.6 kmh W 5.7 mph9.2 kmh 30.21 in1023.0 mb 0.00 in0.0 mm 0.00 in0.0 mm 0.00 in0.0 mm
07:30 PM 68.4°F20.2°C 53.9°F12.2°C 60% 4.7 mph W7.6 kmh W 5.7 mph9.2 kmh 30.24 in1024.0 mb 0.00 in0.0 mm 0.00 in0.0 mm 0.00 in0.0 mm
07:40 PM 67.3°F19.6°C 53.8°F12.1°C 62% 4.7 mph W7.6 kmh W 5.7 mph9.2 kmh 30.24 in1024.0 mb 0.00 in0.0 mm 0.00 in0.0 mm 0.00 in0.0 mm
07:50 PM 66.6°F19.2°C 54.0°F12.2°C 64% 4.7 mph W7.6 kmh W 5.7 mph9.2 kmh 30.24 in1024.0 mb 0.00 in0.0 mm 0.00 in0.0 mm 0.00 in0.0 mm
08:00 PM 66.0°F18.9°C 54.7°F12.6°C 67% 4.7 mph W7.6 kmh W 5.7 mph9.2 kmh 30.24 in1024.0 mb 0.00 in0.0 mm 0.00 in0.0 mm 0.00 in0.0 mm
08:10 PM 65.8°F18.8°C 54.6°F12.6°C 67% 4.7 mph W7.6 kmh W 5.7 mph9.2 kmh 30.21 in1023.0 mb 0.00 in0.0 mm 0.00 in0.0 mm 0.00 in0.0 mm
08:20 PM 65.3°F18.5°C 54.5°F12.5°C 68% 4.7 mph W7.6 kmh W 5.7 mph9.2 kmh 30.21 in1023.0 mb 0.00 in0.0 mm 0.00 in0.0 mm 0.00 in0.0 mm
08:30 PM 65.1°F18.4°C 54.7°F12.6°C 69% 4.7 mph W7.6 kmh W 5.7 mph9.2 kmh 30.24 in1024.0 mb 0.00 in0.0 mm 0.00 in0.0 mm 0.00 in0.0 mm
08:40 PM 64.8°F18.2°C 55.1°F12.8°C 71% 4.7 mph W7.6 kmh W 5.7 mph9.2 kmh 30.24 in1024.0 mb 0.00 in0.0 mm 0.00 in0.0 mm 0.00 in0.0 mm
08:50 PM 64.2°F17.9°C 55.0°F12.8°C 72% 4.7 mph W7.6 kmh W 5.7 mph9.2 kmh 30.24 in1024.0 mb 0.00 in0.0 mm 0.00 in0.0 mm 0.00 in0.0 mm
09:00 PM 64.0°F17.8°C 55.2°F12.9°C 73% 4.7 mph W7.6 kmh W 5.7 mph9.2 kmh 30.24 in1024.0 mb 0.00 in0.0 mm 0.00 in0.0 mm 0.00 in0.0 mm
09:10 PM 63.9°F17.7°C 55.4°F13.0°C 74% 4.7 mph W7.6 kmh W 5.7 mph9.2 kmh 30.24 in1024.0 mb 0.00 in0.0 mm 0.00 in0.0 mm 0.00 in0.0 mm
09:20 PM 63.3°F17.4°C 55.3°F12.9°C 75% 4.7 mph W7.6 kmh W 5.7 mph9.2 kmh 30.24 in1024.0 mb 0.00 in0.0 mm 0.00 in0.0 mm 0.00 in0.0 mm
09:30 PM 63.1°F17.3°C 55.4°F13.0°C 76% 4.7 mph W7.6 kmh W 5.7 mph9.2 kmh 30.24 in1024.0 mb 0.00 in0.0 mm 0.00 in0.0 mm 0.00 in0.0 mm
09:40 PM 63.0°F17.2°C 55.6°F13.1°C 77% 4.7 mph W7.6 kmh W 5.7 mph9.2 kmh 30.24 in1024.0 mb 0.00 in0.0 mm 0.00 in0.0 mm 0.00 in0.0 mm
09:50 PM 63.1°F17.3°C 56.5°F13.6°C 79% 4.7 mph W7.6 kmh W 5.7 mph9.2 kmh 30.24 in1024.0 mb 0.00 in0.0 mm 0.00 in0.0 mm 0.00 in0.0 mm
10:00 PM 63.0°F17.2°C 56.3°F13.5°C 79% 4.7 mph W7.6 kmh W 5.7 mph9.2 kmh 30.24 in1024.0 mb 0.00 in0.0 mm 0.00 in0.0 mm 0.00 in0.0 mm
10:10 PM 62.8°F17.1°C 56.2°F13.4°C 79% 4.7 mph W7.6 kmh W 5.7 mph9.2 kmh 30.24 in1024.0 mb 0.00 in0.0 mm 0.00 in0.0 mm 0.00 in0.0 mm
10:20 PM 62.4°F16.9°C 55.8°F13.2°C 79% 4.7 mph W7.6 kmh W 5.7 mph9.2 kmh 30.24 in1024.0 mb 0.00 in0.0 mm 0.00 in0.0 mm 0.00 in0.0 mm
10:30 PM 62.1°F16.7°C 55.5°F13.1°C 79% 4.7 mph W7.6 kmh W 5.7 mph9.2 kmh 30.24 in1024.0 mb 0.00 in0.0 mm 0.00 in0.0 mm 0.00 in0.0 mm
10:40 PM 62.1°F16.7°C 55.5°F13.1°C 79% 4.7 mph W7.6 kmh W 5.7 mph9.2 kmh 30.24 in1024.0 mb 0.00 in0.0 mm 0.00 in0.0 mm 0.00 in0.0 mm
10:50 PM 62.1°F16.7°C 55.5°F13.1°C 79% 4.7 mph W7.6 kmh W 5.7 mph9.2 kmh 30.24 in1024.0 mb 0.00 in0.0 mm 0.00 in0.0 mm 0.00 in0.0 mm
11:00 PM 61.7°F16.5°C 55.1°F12.8°C 79% 4.7 mph W7.6 kmh W 5.7 mph9.2 kmh 30.24 in1024.0 mb 0.00 in0.0 mm 0.00 in0.0 mm 0.00 in0.0 mm
11:10 PM 61.3°F16.3°C 54.8°F12.7°C 79% 4.7 mph W7.6 kmh W 5.7 mph9.2 kmh 30.24 in1024.0 mb 0.00 in0.0 mm 0.00 in0.0 mm 0.00 in0.0 mm
11:20 PM 61.2°F16.2°C 54.6°F12.6°C 79% 4.7 mph W7.6 kmh W 5.7 mph9.2 kmh 30.24 in1024.0 mb 0.00 in0.0 mm 0.00 in0.0 mm 0.00 in0.0 mm
11:30 PM 60.6°F15.9°C 54.1°F12.3°C 79% 4.7 mph W7.6 kmh W 5.7 mph9.2 kmh 30.24 in1024.0 mb 0.00 in0.0 mm 0.00 in0.0 mm 0.00 in0.0 mm
11:40 PM 60.3°F15.7°C 54.1°F12.3°C 80% 4.7 mph W7.6 kmh W 5.7 mph9.2 kmh 30.24 in1024.0 mb 0.00 in0.0 mm 0.00 in0.0 mm 0.00 in0.0 mm
11:50 PM 60.3°F15.7°C 54.1°F12.3°C 80% 4.7 mph W7.6 kmh W 5.7 mph9.2 kmh 30.24 in1024.0 mb 0.00 in0.0 mm 0.00 in0.0 mm 0.00 in0.0 mm